Time;durP1;ratioP1;P1;durP2;ratioP2;P2;SDS_P1;SDS_P2;PMS_P1;PMS_P2;Temp;Humidity;BMP_temperature;BMP_pressure;BME280_temperature;BME280_humidity;BME280_pressure;Samples;Min_cycle;Max_cycle;Signal;HPM_P1;HPM_P2
2022/12/10 00:01:43;;;;;;;24.17;10.48;;;;;;;2.69;75.51;100361.19;5049246;28;20433;-76
2022/12/10 00:04:10;;;;;;;27.45;11.73;;;;;;;2.67;75.81;100357.75;5047716;28;20045;-76
2022/12/10 00:06:39;;;;;;;25.38;11.93;;;;;;;2.66;75.91;100353.50;5039161;28;20052;-76
2022/12/10 00:09:08;;;;;;;22.73;10.75;;;;;;;2.73;75.24;100368.84;5049408;28;20051;-76
2022/12/10 00:11:35;;;;;;;22.20;9.85;;;;;;;2.52;76.10;100360.75;5056382;28;20044;-76
2022/12/10 00:14:01;;;;;;;22.58;10.82;;;;;;;2.87;79.18;100366.75;5041776;28;20040;-75
2022/12/10 00:16:30;;;;;;;22.90;11.15;;;;;;;2.67;77.47;100366.38;5049553;28;20037;-75
2022/12/10 00:18:57;;;;;;;24.30;10.55;;;;;;;2.77;76.07;100364.44;5032243;28;20052;-76
2022/12/10 00:21:25;;;;;;;23.00;11.52;;;;;;;2.81;75.74;100359.09;5033827;28;20043;-77
2022/12/10 00:23:54;;;;;;;27.65;12.63;;;;;;;2.70;75.87;100368.03;5049114;28;20475;-76
2022/12/10 00:26:23;;;;;;;28.98;12.57;;;;;;;2.70;75.75;100368.03;5031017;28;20036;-76
2022/12/10 00:28:51;;;;;;;26.08;12.52;;;;;;;2.56;75.57;100378.75;5019741;28;20055;-76
2022/12/10 00:31:19;;;;;;;28.80;12.70;;;;;;;2.38;76.84;100380.06;5029398;28;20041;-76
2022/12/10 00:33:47;;;;;;;27.67;12.30;;;;;;;2.47;76.38;100370.38;5033850;28;20394;-76
2022/12/10 00:36:17;;;;;;;25.90;12.20;;;;;;;2.69;76.06;100369.81;5040740;28;20489;-76
2022/12/10 00:38:44;;;;;;;23.25;10.68;;;;;;;2.74;75.92;100374.84;5021783;28;20041;-76
2022/12/10 00:41:13;;;;;;;23.80;10.88;;;;;;;2.78;75.59;100374.72;5033969;28;20485;-76
2022/12/10 00:43:39;;;;;;;27.40;12.02;;;;;;;2.78;75.05;100372.13;5028838;28;20752;-76
2022/12/10 00:46:06;;;;;;;26.70;12.55;;;;;;;2.79;74.87;100368.66;5050246;28;20501;-76
2022/12/10 00:48:33;;;;;;;28.33;12.48;;;;;;;2.78;74.91;100366.09;5050388;28;20055;-76
2022/12/10 00:51:02;;;;;;;32.95;12.38;;;;;;;2.74;74.89;100367.94;5043557;28;20051;-76
2022/12/10 00:53:30;;;;;;;27.23;12.43;;;;;;;2.75;74.62;100368.78;5049061;28;20044;-76
2022/12/10 00:55:57;;;;;;;25.25;12.63;;;;;;;2.74;74.54;100367.06;5047347;28;20041;-76
2022/12/10 00:58:28;;;;;;;28.42;13.00;;;;;;;2.68;74.93;100368.09;5051227;28;20049;-75
2022/12/10 01:00:55;;;;;;;31.95;13.35;;;;;;;2.66;75.08;100369.84;5051534;28;20412;-75
2022/12/10 01:03:21;;;;;;;33.75;12.77;;;;;;;2.69;75.15;100369.81;5041887;28;20516;-75
2022/12/10 01:05:48;;;;;;;28.42;12.55;;;;;;;2.48;75.98;100378.06;5052712;28;20049;-76
2022/12/10 01:08:14;;;;;;;28.40;13.68;;;;;;;2.43;75.75;100379.94;5051717;28;20453;-76
2022/12/10 01:10:40;;;;;;;29.38;13.35;;;;;;;2.59;75.42;100381.25;5041968;28;20151;-75
2022/12/10 01:13:07;;;;;;;29.70;12.43;;;;;;;2.66;75.05;100376.78;5052084;28;20041;-75
2022/12/10 01:15:39;;;;;;;30.67;12.70;;;;;;;2.70;75.00;100374.06;5051090;28;20123;-76
2022/12/10 01:18:06;;;;;;;27.05;12.32;;;;;;;2.73;75.01;100381.78;5042400;28;20443;-77
2022/12/10 01:20:36;;;;;;;28.13;12.63;;;;;;;2.66;74.76;100375.03;5052039;28;20044;-76
2022/12/10 01:23:02;;;;;;;26.33;12.65;;;;;;;2.70;74.80;100376.66;5057041;28;20040;-76
2022/12/10 01:25:28;;;;;;;27.08;12.60;;;;;;;2.74;75.00;100375.69;5051255;28;20044;-76
2022/12/10 01:27:55;;;;;;;25.70;12.38;;;;;;;2.63;75.17;100380.28;5052637;28;20052;-76
2022/12/10 01:30:21;;;;;;;26.00;11.77;;;;;;;2.50;75.65;100378.91;5051488;28;20048;-77
2022/12/10 01:32:49;;;;;;;27.23;12.35;;;;;;;2.47;76.07;100381.56;5041682;28;20539;-76
2022/12/10 01:35:16;;;;;;;34.28;14.52;;;;;;;2.62;75.78;100393.28;5052481;28;20044;-76
2022/12/10 01:37:42;;;;;;;27.13;12.93;;;;;;;2.58;76.06;100387.34;5051461;28;20049;-76
2022/12/10 01:40:10;;;;;;;23.42;12.13;;;;;;;2.64;75.62;100394.94;5041933;28;20044;-75
2022/12/10 01:42:37;;;;;;;28.58;13.23;;;;;;;2.69;75.45;100394.84;5052055;28;20488;-76
2022/12/10 01:45:11;;;;;;;26.90;11.52;;;;;;;2.76;75.07;100386.88;5059444;28;20048;-76
2022/12/10 01:47:38;;;;;;;27.25;12.05;;;;;;;2.79;74.86;100394.56;5048315;28;20437;-76
2022/12/10 01:50:09;;;;;;;30.60;12.50;;;;;;;2.68;75.36;100386.22;5049618;28;20415;-76
2022/12/10 01:52:36;;;;;;;28.85;12.95;;;;;;;2.69;75.51;100393.09;5051450;28;20393;-76
2022/12/10 01:55:10;;;;;;;24.92;11.10;;;;;;;2.71;75.12;100391.31;5040584;28;20032;-76
2022/12/10 01:57:36;;;;;;;28.58;12.02;;;;;;;2.42;76.41;100381.69;5051349;28;20119;-76
2022/12/10 02:00:07;;;;;;;29.55;12.02;;;;;;;2.51;76.13;100382.34;5041102;28;20048;-76
2022/12/10 02:02:42;;;;;;;28.13;12.43;;;;;;;2.57;75.99;100390.81;5065645;28;20052;-76
2022/12/10 02:05:19;;;;;;;26.80;11.20;;;;;;;2.58;76.08;100379.56;5051450;28;20182;-76
2022/12/10 02:07:58;;;;;;;24.95;12.25;;;;;;;2.71;76.06;100387.88;5051075;28;20048;-75
2022/12/10 02:10:35;;;;;;;28.85;12.68;;;;;;;2.71;75.97;100380.94;5056518;28;20044;-76
2022/12/10 02:13:08;;;;;;;32.13;12.25;;;;;;;2.61;76.51;100381.22;5051047;28;20044;-75
2022/12/10 02:15:39;;;;;;;36.15;14.10;;;;;;;2.61;76.75;100386.41;5050993;28;20040;-76
2022/12/10 02:18:10;;;;;;;37.55;15.38;;;;;;;2.62;76.40;100381.19;5041414;28;20052;-76
2022/12/10 02:20:41;;;;;;;33.65;13.48;;;;;;;2.40;77.11;100383.44;5050262;28;20044;-76
2022/12/10 02:23:12;;;;;;;39.83;15.80;;;;;;;2.11;78.41;100377.25;5040940;28;20048;-76
2022/12/10 02:25:42;;;;;;;39.05;14.40;;;;;;;2.11;78.48;100379.84;5050487;28;20044;-76
2022/12/10 02:28:18;;;;;;;42.85;15.25;;;;;;;2.18;78.69;100382.25;5031006;28;20052;-76
2022/12/10 02:30:49;;;;;;;38.33;14.77;;;;;;;2.26;78.66;100387.25;5021021;28;20049;-76
2022/12/10 02:33:18;;;;;;;39.47;15.10;;;;;;;2.44;77.92;100381.63;5030608;28;20051;-76
2022/12/10 02:35:50;;;;;;;39.10;14.80;;;;;;;2.23;78.54;100389.91;5056171;27;20044;-76
2022/12/10 02:38:21;;;;;;;49.42;15.77;;;;;;;2.07;78.88;100393.75;5070772;27;20058;-76
2022/12/10 02:40:53;;;;;;;40.08;14.90;;;;;;;2.06;79.01;100390.31;5070663;27;20040;-75
2022/12/10 02:43:22;;;;;;;43.03;15.03;;;;;;;2.29;78.78;100398.38;5050112;27;20052;-76
2022/12/10 02:45:51;;;;;;;39.35;15.18;;;;;;;2.24;78.82;100391.63;5033527;28;20047;-76
2022/12/10 02:48:19;;;;;;;37.20;14.50;;;;;;;2.47;77.94;100393.66;5048035;28;20052;-77
2022/12/10 02:50:46;;;;;;;34.38;14.35;;;;;;;2.33;77.94;100396.56;5049903;28;20052;-77
2022/12/10 02:53:12;;;;;;;40.30;14.30;;;;;;;1.96;79.69;100393.97;5050042;28;20059;-76
2022/12/10 02:55:56;;;;;;;34.42;13.43;;;;;;;1.98;79.68;100393.94;5048199;28;20044;-76
2022/12/10 02:58:31;;;;;;;33.35;14.35;;;;;;;2.13;79.46;100385.84;5049866;28;20050;-76
2022/12/10 03:01:08;;;;;;;36.90;15.32;;;;;;;2.28;78.71;100394.09;5040086;28;20048;-76
2022/12/10 03:03:44;;;;;;;33.28;13.85;;;;;;;2.17;78.75;100390.06;5050187;28;20541;-76
2022/12/10 03:06:18;;;;;;;31.35;12.20;;;;;;;2.14;79.00;100393.56;5041599;28;20484;-76
2022/12/10 03:08:51;;;;;;;31.38;13.38;;;;;;;1.88;79.94;100383.81;5053423;28;20040;-76
2022/12/10 03:11:20;;;;;;;29.92;12.65;;;;;;;1.65;80.97;100383.44;5061174;28;20044;-76
2022/12/10 03:13:55;;;;;;;33.15;13.50;;;;;;;1.56;81.29;100383.63;5039330;28;20052;-76
2022/12/10 03:16:24;;;;;;;37.50;13.07;;;;;;;1.31;81.92;100382.44;5049172;28;20053;-76
2022/12/10 03:18:57;;;;;;;32.88;13.40;;;;;;;1.47;81.62;100389.00;5070898;28;20129;-77
2022/12/10 03:21:28;;;;;;;29.88;12.20;;;;;;;1.53;81.60;100396.63;5048331;28;20041;-77
2022/12/10 03:23:54;;;;;;;27.80;12.35;;;;;;;1.27;82.01;100391.13;5049161;28;20052;-76
2022/12/10 03:26:22;;;;;;;29.20;12.52;;;;;;;1.42;82.02;100393.41;5038987;28;20055;-76
2022/12/10 03:28:53;;;;;;;30.35;12.63;;;;;;;1.28;82.07;100396.25;5049002;28;20037;-76
2022/12/10 03:31:20;;;;;;;31.00;11.65;;;;;;;1.55;81.80;100401.75;5050440;28;20036;-76
2022/12/10 03:33:49;;;;;;;32.90;12.55;;;;;;;1.61;81.04;100391.28;5044372;28;20052;-76
2022/12/10 03:36:19;;;;;;;31.15;12.45;;;;;;;1.82;80.30;100393.41;5049218;28;20049;-76
2022/12/10 03:38:46;;;;;;;31.45;12.77;;;;;;;2.05;79.76;100392.91;5039108;28;20044;-76
2022/12/10 03:41:12;;;;;;;34.90;13.48;;;;;;;1.95;79.47;100400.03;5049774;28;20051;-76
2022/12/10 03:43:51;;;;;;;38.10;14.65;;;;;;;1.84;79.90;100392.53;5048480;28;20485;-76
2022/12/10 03:46:18;;;;;;;33.63;13.27;;;;;;;1.68;80.13;100395.44;5039056;28;20044;-76
2022/12/10 03:48:44;;;;;;;36.10;14.10;;;;;;;1.82;79.75;100394.28;5048361;28;20162;-76
2022/12/10 03:51:12;;;;;;;29.63;12.57;;;;;;;1.82;79.89;100391.69;5045436;28;20544;-76
2022/12/10 03:53:38;;;;;;;37.13;13.52;;;;;;;2.04;79.42;100401.53;5038199;28;20041;-76
2022/12/10 03:56:05;;;;;;;32.13;12.18;;;;;;;1.90;79.35;100404.44;5048528;28;20055;-76
2022/12/10 03:58:31;;;;;;;28.70;12.25;;;;;;;1.95;79.02;100403.47;5049139;28;20044;-76
2022/12/10 04:00:58;;;;;;;24.27;11.18;;;;;;;1.86;78.83;100395.91;5039403;28;20041;-76
2022/12/10 04:03:25;;;;;;;28.98;12.32;;;;;;;2.05;78.49;100400.66;5057087;28;20043;-76
2022/12/10 04:05:51;;;;;;;31.30;12.50;;;;;;;2.16;77.90;100402.13;5072094;28;20491;-76
2022/12/10 04:08:19;;;;;;;28.75;13.38;;;;;;;2.19;77.81;100408.97;5038216;28;20037;-76
2022/12/10 04:10:45;;;;;;;34.25;14.00;;;;;;;2.23;77.85;100410.59;5072922;28;20036;-76
2022/12/10 04:18:41;;;;;;;27.52;12.27;;;;;;;1.57;80.61;100418.06;5038212;28;20194;-76
2022/12/10 04:26:55;;;;;;;30.70;13.30;;;;;;;1.96;79.51;100410.31;5033103;28;20784;-76
2022/12/10 04:29:23;;;;;;;30.38;13.40;;;;;;;2.07;79.48;100407.50;5029564;28;20176;-76
2022/12/10 04:31:49;;;;;;;36.08;13.85;;;;;;;2.17;78.60;100405.56;5047778;28;20052;-76
2022/12/10 04:34:16;;;;;;;32.42;13.57;;;;;;;2.06;79.07;100407.56;5048504;28;20044;-76
2022/12/10 04:36:43;;;;;;;33.85;13.95;;;;;;;2.24;78.78;100417.47;5037909;28;20044;-76
2022/12/10 04:39:11;;;;;;;34.13;14.05;;;;;;;2.33;78.31;100412.94;5047871;28;20052;-76
2022/12/10 04:41:39;;;;;;;29.60;12.80;;;;;;;2.34;77.95;100408.63;5048958;28;20044;-76
2022/12/10 04:44:06;;;;;;;28.02;11.90;;;;;;;2.37;77.88;100411.13;5038124;28;20044;-76
2022/12/10 04:46:32;;;;;;;27.95;11.20;;;;;;;2.18;78.46;100410.69;5047541;28;20052;-77
2022/12/10 04:48:59;;;;;;;26.55;12.15;;;;;;;2.15;78.51;100412.50;5048071;28;20041;-76
2022/12/10 04:51:26;;;;;;;25.88;11.35;;;;;;;2.28;78.01;100412.22;5038192;28;20404;-76
2022/12/10 04:53:52;;;;;;;36.15;12.35;;;;;;;2.29;78.30;100411.31;5047361;28;20060;-76
2022/12/10 04:56:20;;;;;;;37.03;12.52;;;;;;;2.30;78.45;100404.41;5048779;28;20049;-76
2022/12/10 04:58:47;;;;;;;33.88;13.15;;;;;;;2.30;78.42;100407.84;5038365;28;20041;-76
2022/12/10 05:01:13;;;;;;;27.70;12.00;;;;;;;2.28;78.85;100401.00;5047855;28;20056;-76
2022/12/10 05:03:40;;;;;;;31.70;12.80;;;;;;;2.25;78.76;100398.50;5048401;28;20507;-76
2022/12/10 05:06:09;;;;;;;30.05;12.35;;;;;;;2.26;79.25;100398.44;5038266;28;20075;-76
2022/12/10 05:08:36;;;;;;;31.23;13.25;;;;;;;2.31;78.72;100404.38;5057207;28;20514;-76
2022/12/10 05:11:03;;;;;;;30.15;12.15;;;;;;;2.23;79.19;100405.44;5069881;28;20040;-76
2022/12/10 05:13:31;;;;;;;41.92;13.70;;;;;;;2.29;78.98;100400.13;5037920;28;20393;-76
2022/12/10 05:15:58;;;;;;;32.80;11.07;;;;;;;2.07;80.14;100409.25;5047452;28;20044;-76
2022/12/10 05:18:25;;;;;;;32.55;12.77;;;;;;;2.29;79.26;100400.94;5048143;28;20402;-76
2022/12/10 05:20:52;;;;;;;34.10;13.25;;;;;;;2.29;79.08;100413.88;5037861;28;20488;-76
2022/12/10 05:23:30;;;;;;;37.95;13.50;;;;;;;2.10;79.71;100404.88;5047384;28;20051;-77
2022/12/10 05:26:02;;;;;;;34.35;12.10;;;;;;;1.90;80.88;100413.06;5038108;28;20059;-76
2022/12/10 05:28:31;;;;;;;37.58;14.23;;;;;;;1.85;81.23;100417.47;5047625;28;20086;-76
2022/12/10 05:30:58;;;;;;;39.22;13.60;;;;;;;2.08;80.53;100410.94;5047785;28;20041;-76
2022/12/10 05:33:25;;;;;;;35.90;12.75;;;;;;;1.97;80.89;100406.00;5038025;28;20049;-76
2022/12/10 05:35:53;;;;;;;36.20;12.52;;;;;;;2.09;80.68;100410.06;5047215;28;20060;-76
2022/12/10 05:38:20;;;;;;;33.75;13.23;;;;;;;2.09;80.51;100408.34;5048037;28;20055;-76
2022/12/10 05:40:46;;;;;;;33.72;12.10;;;;;;;1.96;80.99;100412.91;5037342;28;20064;-77
2022/12/10 05:43:13;;;;;;;36.42;12.95;;;;;;;1.77;81.51;100411.63;5048006;28;20056;-76
2022/12/10 05:45:41;;;;;;;34.28;12.43;;;;;;;1.80;82.15;100402.94;5050990;28;20046;-77
2022/12/10 05:48:10;;;;;;;37.30;13.32;;;;;;;1.89;81.47;100419.09;5041535;28;20048;-76
2022/12/10 05:50:37;;;;;;;36.65;13.93;;;;;;;2.31;80.11;100419.03;5050488;28;20055;-76
2022/12/10 05:53:03;;;;;;;30.75;12.25;;;;;;;2.32;79.48;100420.75;5051499;28;20051;-76
2022/12/10 05:55:32;;;;;;;31.50;11.52;;;;;;;2.36;79.40;100417.22;5040963;28;20110;-76
2022/12/10 05:57:59;;;;;;;33.97;12.88;;;;;;;2.45;79.07;100419.56;5051060;28;20044;-76
2022/12/10 06:00:26;;;;;;;28.73;11.00;;;;;;;2.44;79.18;100420.44;5050683;28;20052;-76
2022/12/10 06:02:55;;;;;;;29.30;11.20;;;;;;;2.45;79.04;100419.56;5040771;28;20040;-76
2022/12/10 06:05:21;;;;;;;34.53;12.63;;;;;;;2.37;79.35;100421.47;5050629;28;20051;-76
2022/12/10 06:07:48;;;;;;;34.33;12.82;;;;;;;2.44;78.86;100423.03;5051051;28;20044;-76
2022/12/10 06:10:14;;;;;;;30.48;12.85;;;;;;;1.91;80.38;100425.09;5040816;28;20059;-77
2022/12/10 06:12:41;;;;;;;33.67;12.98;;;;;;;2.05;80.68;100434.28;5050156;28;20051;-77
2022/12/10 06:15:08;;;;;;;33.42;13.25;;;;;;;2.13;80.45;100429.81;5051211;28;20048;-76
2022/12/10 06:17:36;;;;;;;38.53;12.77;;;;;;;2.12;80.24;100428.09;5040726;28;20055;-76
2022/12/10 06:20:04;;;;;;;30.30;11.95;;;;;;;2.17;79.93;100426.28;5050164;28;20082;-76
2022/12/10 06:22:30;;;;;;;33.92;12.93;;;;;;;2.36;79.52;100437.91;5058317;28;20500;-77
2022/12/10 06:24:57;;;;;;;33.20;11.65;;;;;;;2.39;79.15;100437.81;5049293;28;20068;-77
2022/12/10 06:27:23;;;;;;;26.83;10.90;;;;;;;2.36;79.27;100437.91;5050171;28;20048;-77
2022/12/10 06:29:50;;;;;;;28.15;11.05;;;;;;;2.35;79.01;100436.19;5050951;28;20045;-77
2022/12/10 06:32:16;;;;;;;26.52;11.77;;;;;;;2.45;78.91;100440.25;5040709;28;20056;-77
2022/12/10 06:34:43;;;;;;;30.00;12.25;;;;;;;2.30;79.18;100438.88;5049737;28;20059;-77
2022/12/10 06:37:11;;;;;;;29.30;12.20;;;;;;;2.17;79.51;100436.63;5051075;28;20056;-76
2022/12/10 06:39:37;;;;;;;29.00;11.38;;;;;;;2.31;79.09;100439.75;5039818;28;20048;-76
2022/12/10 06:42:05;;;;;;;31.08;10.82;;;;;;;2.47;78.58;100440.25;5049551;28;20052;-76
2022/12/10 06:44:31;;;;;;;29.42;10.75;;;;;;;2.41;78.11;100449.84;5048832;28;20504;-76
2022/12/10 06:46:58;;;;;;;32.42;12.38;;;;;;;2.33;77.94;100443.97;5039995;28;20417;-76
2022/12/10 06:49:24;;;;;;;30.70;11.77;;;;;;;2.17;79.24;100444.38;5049297;28;20067;-76
2022/12/10 06:51:51;;;;;;;30.48;13.73;;;;;;;2.35;78.56;100444.81;5049948;28;20040;-76
2022/12/10 06:54:19;;;;;;;35.58;13.75;;;;;;;2.34;78.48;100456.03;5048494;28;20056;-76
2022/12/10 06:56:45;;;;;;;39.80;17.23;;;;;;;2.39;78.06;100448.19;5054337;28;20052;-76
2022/12/10 06:59:12;;;;;;;44.42;19.70;;;;;;;2.28;78.99;100461.38;5064831;28;20044;-76
2022/12/10 07:01:39;;;;;;;34.33;13.75;;;;;;;2.19;78.61;100460.69;5039879;28;20049;-76
2022/12/10 07:04:06;;;;;;;36.35;13.95;;;;;;;2.30;78.68;100462.16;5048209;28;20432;-76
2022/12/10 07:06:33;;;;;;;35.58;13.15;;;;;;;2.44;78.41;100451.50;5048292;28;20048;-76
2022/12/10 07:08:59;;;;;;;34.85;13.82;;;;;;;2.54;78.16;100458.19;5038820;28;20047;-77
2022/12/10 07:11:27;;;;;;;49.25;19.02;;;;;;;2.43;78.57;100465.34;5061399;28;20412;-76
2022/12/10 07:13:54;;;;;;;45.50;20.05;;;;;;;2.51;78.10;100463.44;5050839;28;20048;-77
2022/12/10 07:16:22;;;;;;;43.28;17.92;;;;;;;2.63;77.91;100465.72;5039377;28;20624;-77
2022/12/10 07:18:50;;;;;;;39.65;15.70;;;;;;;2.72;77.54;100464.66;5049211;28;20515;-76
2022/12/10 07:21:19;;;;;;;47.88;18.15;;;;;;;2.70;77.53;100462.09;5049267;28;20131;-76
2022/12/10 07:23:45;;;;;;;39.42;15.38;;;;;;;2.77;77.29;100468.00;5038985;28;20052;-76
2022/12/10 07:26:12;;;;;;;36.42;14.23;;;;;;;2.82;77.25;100471.31;5061204;28;20055;-76
2022/12/10 07:28:40;;;;;;;30.20;11.77;;;;;;;2.90;76.52;100471.97;5051604;28;20424;-76
2022/12/10 07:31:08;;;;;;;31.98;12.25;;;;;;;2.87;76.58;100474.63;5038804;28;20405;-76
2022/12/10 07:33:36;;;;;;;28.27;11.85;;;;;;;2.83;76.23;100476.44;5048536;28;20033;-76
2022/12/10 07:36:04;;;;;;;30.48;11.60;;;;;;;2.75;76.68;100470.59;5049114;28;20428;-76
2022/12/10 07:38:31;;;;;;;35.25;14.75;;;;;;;2.72;76.65;100482.78;5048843;28;20044;-76
2022/12/10 07:40:57;;;;;;;32.65;15.60;;;;;;;2.74;76.25;100491.34;5049505;28;20040;-76
2022/12/10 07:43:24;;;;;;;38.63;15.25;;;;;;;2.60;76.43;100485.63;5047533;28;20045;-77
2022/12/10 07:45:52;;;;;;;32.65;13.45;;;;;;;2.45;76.68;100492.88;5047994;28;20064;-77
2022/12/10 07:48:18;;;;;;;29.20;13.30;;;;;;;2.58;77.00;100487.44;5049267;28;20041;-77
2022/12/10 07:50:45;;;;;;;33.75;11.07;;;;;;;2.58;76.59;100484.84;5047779;28;20052;-77
2022/12/10 07:53:11;;;;;;;28.50;11.10;;;;;;;2.69;76.13;100486.28;5056330;28;20060;-78
2022/12/10 07:55:38;;;;;;;27.73;11.52;;;;;;;2.59;76.19;100484.78;5052831;28;20445;-77
2022/12/10 07:58:04;;;;;;;33.38;11.73;;;;;;;2.54;76.73;100494.41;5048635;28;20416;-77
2022/12/10 08:00:31;;;;;;;34.35;13.98;;;;;;;2.55;76.74;100492.69;5037119;28;20048;-76
2022/12/10 08:02:58;;;;;;;29.05;11.93;;;;;;;2.63;76.19;100491.59;5057226;28;20040;-76
2022/12/10 08:05:25;;;;;;;31.33;13.55;;;;;;;2.59;76.51;100495.13;5068795;28;20052;-76
2022/12/10 08:07:51;;;;;;;25.83;11.73;;;;;;;2.71;75.88;100491.41;5038060;28;20068;-76
2022/12/10 08:10:18;;;;;;;31.45;12.70;;;;;;;2.77;75.59;100493.88;5047663;28;20394;-77
2022/12/10 08:12:45;;;;;;;33.75;13.07;;;;;;;2.63;76.16;100493.31;5047077;28;20131;-69
2022/12/10 08:15:11;;;;;;;30.60;13.13;;;;;;;2.63;76.33;100496.78;5038916;28;20072;-69
2022/12/10 08:17:38;;;;;;;33.80;12.95;;;;;;;2.59;76.92;100496.91;5048219;28;20045;-69
2022/12/10 08:20:07;;;;;;;32.53;13.18;;;;;;;2.55;76.81;100501.25;5047757;28;20063;-68
2022/12/10 08:22:35;;;;;;;28.50;11.50;;;;;;;2.32;77.37;100495.78;5038168;28;20452;-68
2022/12/10 08:25:01;;;;;;;29.85;11.93;;;;;;;2.33;77.30;100494.88;5047990;28;20097;-69
2022/12/10 08:27:28;;;;;;;30.42;12.73;;;;;;;2.47;76.67;100503.19;5048663;28;20052;-69
2022/12/10 08:29:54;;;;;;;28.38;11.07;;;;;;;2.39;76.62;100502.50;5037875;28;20048;-69
2022/12/10 08:32:21;;;;;;;28.00;12.50;;;;;;;2.47;76.79;100508.38;5047310;28;20052;-69
2022/12/10 08:34:48;;;;;;;29.25;12.18;;;;;;;2.60;76.44;100499.44;5047690;28;20051;-69
2022/12/10 08:37:16;;;;;;;30.83;12.18;;;;;;;2.54;76.37;100503.91;5036819;28;20117;-69
2022/12/10 08:39:43;;;;;;;25.58;11.90;;;;;;;2.62;76.08;100508.03;5047474;28;20052;-69
2022/12/10 08:42:09;;;;;;;29.45;11.52;;;;;;;2.49;76.55;100510.91;5048250;28;20059;-70
2022/12/10 08:44:36;;;;;;;29.42;11.93;;;;;;;2.38;76.75;100511.16;5037843;28;20408;-69
2022/12/10 08:47:02;;;;;;;31.35;11.48;;;;;;;2.20;76.96;100514.13;5047668;28;20055;-68
2022/12/10 08:49:29;;;;;;;29.98;12.13;;;;;;;2.31;77.05;100514.75;5048147;28;20055;-68
2022/12/10 08:51:55;;;;;;;27.95;12.25;;;;;;;2.67;76.96;100515.66;5038073;28;20048;-68
2022/12/10 08:54:23;;;;;;;27.33;11.07;;;;;;;2.74;77.05;100512.06;5047337;28;20044;-68
2022/12/10 08:56:50;;;;;;;26.63;11.52;;;;;;;2.60;76.52;100521.88;5048245;28;20041;-68
2022/12/10 08:59:17;;;;;;;24.05;11.30;;;;;;;2.70;75.87;100513.84;5037984;28;20485;-68
2022/12/10 09:01:43;;;;;;;28.50;11.43;;;;;;;2.49;76.30;100519.53;5047269;28;20532;-68
2022/12/10 09:04:10;;;;;;;28.58;11.77;;;;;;;2.49;76.35;100527.28;5047894;28;20049;-68
2022/12/10 09:06:37;;;;;;;28.52;11.15;;;;;;;2.52;75.93;100529.81;5037903;28;20741;-69
2022/12/10 09:09:03;;;;;;;41.80;17.25;;;;;;;2.62;75.53;100528.75;5047595;28;20045;-69
2022/12/10 09:11:34;;;;;;;38.75;15.57;;;;;;;2.61;75.67;100533.94;5048763;28;20041;-69
2022/12/10 09:14:00;;;;;;;29.67;12.35;;;;;;;2.66;75.77;100530.34;5037451;28;20041;-69
2022/12/10 09:16:31;;;;;;;27.73;11.75;;;;;;;2.44;76.78;100535.16;5047522;28;20055;-69
2022/12/10 09:18:58;;;;;;;26.75;11.77;;;;;;;2.43;76.88;100532.63;5049718;28;20053;-69
2022/12/10 09:21:24;;;;;;;26.95;11.07;;;;;;;2.43;76.71;100527.44;5050761;28;20068;-70
2022/12/10 09:23:51;;;;;;;24.00;10.85;;;;;;;2.30;77.27;100531.16;5055715;28;20089;-68
2022/12/10 09:26:19;;;;;;;26.90;11.93;;;;;;;2.49;76.86;100537.66;5061399;28;20041;-69
2022/12/10 09:28:47;;;;;;;24.48;10.77;;;;;;;2.50;76.81;100531.59;5052309;27;20068;-69
2022/12/10 09:31:15;;;;;;;24.02;11.13;;;;;;;2.45;76.92;100529.09;5063852;27;20566;-69
2022/12/10 09:33:42;;;;;;;28.17;12.20;;;;;;;2.34;77.18;100540.56;5074290;27;20039;-69
2022/12/10 09:36:11;;;;;;;25.83;10.88;;;;;;;2.46;76.71;100535.13;5053504;28;20048;-68
2022/12/10 09:38:40;;;;;;;26.88;11.40;;;;;;;2.36;77.30;100536.22;5051701;27;20041;-67
2022/12/10 09:41:26;;;;;;;26.70;10.73;;;;;;;2.33;77.43;100539.72;5059353;27;20051;-67
2022/12/10 09:44:02;;;;;;;23.70;10.25;;;;;;;2.03;78.63;100544.69;5059619;27;20040;-68
2022/12/10 09:46:49;;;;;;;32.35;12.23;;;;;;;2.33;77.79;100537.13;5048204;28;20044;-67
2022/12/10 09:49:22;;;;;;;26.20;11.15;;;;;;;2.36;77.16;100531.91;5047607;28;20535;-66
2022/12/10 09:51:50;;;;;;;25.70;11.30;;;;;;;2.50;76.73;100531.59;5031917;27;20040;-67
2022/12/10 09:54:23;;;;;;;28.80;12.35;;;;;;;2.55;77.01;100539.25;5078353;27;20048;-69
2022/12/10 09:56:52;;;;;;;25.83;10.73;;;;;;;2.33;77.17;100536.25;5035459;28;20044;-69
2022/12/10 09:59:25;;;;;;;30.88;11.63;;;;;;;2.39;77.02;100533.56;5039769;28;20408;-68
2022/12/10 10:02:02;;;;;;;25.77;11.63;;;;;;;2.50;76.79;100529.00;5011226;28;20485;-69
2022/12/10 10:04:29;;;;;;;26.17;12.13;;;;;;;2.54;76.96;100534.97;5030188;28;20710;-69
2022/12/10 10:06:57;;;;;;;27.15;12.00;;;;;;;2.67;77.89;100534.66;5030754;28;20045;-69
2022/12/10 10:09:24;;;;;;;26.10;11.93;;;;;;;2.57;76.94;100530.56;5022727;28;20373;-69
2022/12/10 10:11:51;;;;;;;23.10;11.55;;;;;;;2.49;76.46;100529.88;5031345;28;20393;-69
2022/12/10 10:14:25;;;;;;;24.05;11.20;;;;;;;2.36;76.84;100526.72;5030858;28;20492;-69
2022/12/10 10:17:00;;;;;;;23.77;10.68;;;;;;;2.17;77.79;100530.59;5040945;27;20617;-69
2022/12/10 10:19:30;;;;;;;28.33;12.55;;;;;;;2.12;78.19;100521.19;5052894;28;20055;-69
2022/12/10 10:21:57;;;;;;;34.13;12.38;;;;;;;2.31;77.65;100528.56;5046294;28;20056;-69
2022/12/10 10:24:36;;;;;;;22.52;10.98;;;;;;;2.10;77.83;100525.56;5022966;28;20053;-70
2022/12/10 10:27:13;;;;;;;24.23;11.43;;;;;;;2.36;77.35;100523.28;5031280;28;20052;-70
2022/12/10 10:29:41;;;;;;;23.90;12.48;;;;;;;2.61;77.10;100521.00;5025085;28;20622;-70
2022/12/10 10:32:16;;;;;;;22.60;10.70;;;;;;;2.68;75.62;100522.56;5030056;28;20056;-70
2022/12/10 10:34:44;;;;;;;31.45;14.13;;;;;;;2.65;75.61;100533.00;5021045;28;20045;-70
2022/12/10 10:37:17;;;;;;;23.98;10.93;;;;;;;2.69;74.60;100524.28;5018206;28;20045;-69
2022/12/10 10:39:48;;;;;;;27.95;11.75;;;;;;;2.75;74.33;100519.78;5020774;28;20448;-71
2022/12/10 10:42:36;;;;;;;29.45;12.88;;;;;;;2.92;74.68;100516.78;5041690;28;20053;-70
2022/12/10 10:45:06;;;;;;;27.33;13.18;;;;;;;2.99;74.16;100523.56;5050766;28;20047;-71
2022/12/10 10:47:36;;;;;;;30.77;14.90;;;;;;;2.96;74.07;100518.41;5069795;27;20086;-71
2022/12/10 10:50:06;;;;;;;28.13;13.15;;;;;;;3.04;73.87;100518.25;5069650;27;20044;-71
2022/12/10 10:52:38;;;;;;;25.58;12.27;;;;;;;2.85;74.45;100523.88;5050123;27;20144;-70
2022/12/10 10:55:06;;;;;;;27.50;12.57;;;;;;;3.10;74.21;100520.69;5064261;28;20127;-71
2022/12/10 10:57:35;;;;;;;33.58;15.35;;;;;;;3.08;73.94;100517.28;5061268;28;20051;-70
2022/12/10 11:00:07;;;;;;;28.92;15.55;;;;;;;3.07;73.79;100520.78;5059824;28;20082;-70
2022/12/10 11:02:37;;;;;;;23.33;11.60;;;;;;;2.71;74.13;100517.31;5069540;28;20068;-70
2022/12/10 11:05:07;;;;;;;24.27;11.25;;;;;;;2.78;75.08;100518.88;5060243;28;20044;-70
2022/12/10 11:07:36;;;;;;;44.17;18.30;;;;;;;2.45;75.14;100521.34;5070078;28;20040;-68
2022/12/10 11:10:05;;;;;;;41.28;17.20;;;;;;;2.57;75.35;100519.38;5055410;28;20477;-68
2022/12/10 11:12:36;;;;;;;31.60;13.48;;;;;;;2.66;74.36;100525.16;5027821;28;20423;-68
2022/12/10 11:15:29;;;;;;;29.15;13.80;;;;;;;2.89;74.39;100522.91;5034581;28;20044;-68
2022/12/10 11:17:56;;;;;;;;;;;;;;;2.86;73.53;100519.53;5035919;28;20044;-69
2022/12/10 11:20:26;;;;;;;29.58;13.20;;;;;;;2.95;74.28;100514.16;5042049;28;19921;-69
2022/12/10 11:22:54;;;;;;;21.70;11.05;;;;;;;2.59;74.47;100521.03;5029383;28;20471;-69
2022/12/10 11:25:32;;;;;;;28.50;13.18;;;;;;;2.52;75.27;100519.47;5048068;28;20064;-69
2022/12/10 11:28:02;;;;;;;34.90;15.32;;;;;;;2.74;74.73;100517.22;5049392;28;20572;-69
2022/12/10 11:30:35;;;;;;;26.50;14.23;;;;;;;2.88;74.55;100523.78;5039262;28;20045;-69
2022/12/10 11:33:19;;;;;;;29.65;13.93;;;;;;;2.96;73.94;100515.00;5076065;28;20535;-69
2022/12/10 11:35:55;;;;;;;25.80;12.82;;;;;;;2.98;73.73;100518.41;5039373;28;20048;-69